Time,TemperatureF,DewpointF,PressureIn,WindDirection,WindDirectionDegrees,WindSpeedMPH,WindSpeedGustMPH,Humidity,HourlyPrecipIn,Conditions,Clouds,dailyrainin,SoftwareType,DateUTC
2013-02-15 00:02:00,64.0,62.0,29.99,North,350,5.0,5.0,94,0.03,,,0.00,,2013-02-15 05:02:00,
2013-02-15 00:12:00,64.0,62.0,29.99,North,350,5.0,5.0,94,0.03,,,0.00,,2013-02-15 05:12:00,
2013-02-15 00:22:00,63.0,61.0,29.99,North,359,3.0,4.0,94,0.01,,,0.96,,2013-02-15 05:22:00,
2013-02-15 00:32:00,64.0,62.0,29.99,NNW,339,3.0,3.0,94,0.01,,,0.96,,2013-02-15 05:32:00,
2013-02-15 00:42:00,64.0,62.0,29.99,NNW,339,3.0,3.0,94,0.01,,,0.96,,2013-02-15 05:42:00,
2013-02-15 00:52:00,64.0,62.0,29.99,NNW,342,2.0,3.0,94,0.01,,,0.96,,2013-02-15 05:52:00,
2013-02-15 01:02:00,64.0,62.0,29.98,NNE,21,0.0,0.0,94,0.01,,,0.96,,2013-02-15 06:02:00,
2013-02-15 01:11:00,64.0,62.0,29.98,North,6,4.0,4.0,94,0.00,,,0.96,,2013-02-15 06:11:00,
2013-02-15 01:22:00,64.0,62.0,29.98,North,6,4.0,4.0,94,0.00,,,0.96,,2013-02-15 06:22:00,
2013-02-15 01:32:00,64.0,62.0,29.97,NNW,346,1.0,0.0,94,0.00,,,0.96,,2013-02-15 06:32:00,
2013-02-15 01:42:00,64.0,62.0,29.97,NNW,346,1.0,0.0,94,0.00,,,0.96,,2013-02-15 06:42:00,
2013-02-15 01:52:00,64.0,62.0,29.96,North,349,0.0,0.0,94,0.00,,,0.96,,2013-02-15 06:52:00,
2013-02-15 02:01:00,64.0,62.0,29.96,North,1,2.0,0.0,94,0.00,,,0.96,,2013-02-15 07:01:00,
2013-02-15 02:11:00,64.0,62.0,29.96,North,1,2.0,0.0,94,0.00,,,0.96,,2013-02-15 07:11:00,
2013-02-15 02:21:00,65.0,64.0,29.96,NNW,343,1.0,3.0,95,0.01,,,0.96,,2013-02-15 07:21:00,
2013-02-15 02:32:00,66.0,64.0,29.96,NNE,28,4.0,4.0,93,0.01,,,0.96,,2013-02-15 07:32:00,
2013-02-15 02:42:00,66.0,64.0,29.96,NNE,28,4.0,4.0,93,0.01,,,0.96,,2013-02-15 07:42:00,
2013-02-15 02:52:00,66.0,64.0,29.96,NE,34,4.0,6.0,93,0.01,,,0.96,,2013-02-15 07:52:00,
2013-02-15 03:01:00,66.0,64.0,29.96,NNE,20,5.0,5.0,93,0.01,,,0.96,,2013-02-15 08:01:00,
2013-02-15 03:11:00,66.0,64.0,29.96,NNE,20,5.0,5.0,93,0.01,,,0.96,,2013-02-15 08:11:00,
2013-02-15 03:21:00,66.0,64.0,29.96,North,11,3.0,3.0,94,0.02,,,0.96,,2013-02-15 08:21:00,
2013-02-15 03:32:00,66.0,65.0,29.96,North,359,5.0,6.0,95,0.02,,,0.96,,2013-02-15 08:32:00,
2013-02-15 03:42:00,66.0,65.0,29.96,North,359,5.0,6.0,95,0.02,,,0.96,,2013-02-15 08:42:00,
2013-02-15 03:53:00,66.0,65.0,29.96,NNE,25,5.0,5.0,95,0.02,,,0.96,,2013-02-15 08:53:00,
2013-02-15 04:02:00,66.0,65.0,29.95,NE,34,3.0,5.0,95,0.02,,,0.96,,2013-02-15 09:02:00,
2013-02-15 04:12:00,66.0,65.0,29.95,NE,34,3.0,5.0,95,0.02,,,0.96,,2013-02-15 09:12:00,
2013-02-15 04:21:00,67.0,66.0,29.95,NNE,31,5.0,5.0,95,0.02,,,0.96,,2013-02-15 09:21:00,
2013-02-15 04:32:00,67.0,66.0,29.95,ENE,60,3.0,3.0,95,0.02,,,0.96,,2013-02-15 09:32:00,
2013-02-15 04:42:00,67.0,66.0,29.95,ENE,60,3.0,3.0,95,0.02,,,0.96,,2013-02-15 09:42:00,
2013-02-15 04:52:00,66.0,65.0,29.95,North,359,3.0,3.0,95,0.02,,,0.96,,2013-02-15 09:52:00,
2013-02-15 05:01:00,67.0,66.0,29.96,NE,46,3.0,3.0,95,0.02,,,0.96,,2013-02-15 10:01:00,
2013-02-15 05:11:00,67.0,66.0,29.96,NE,46,3.0,3.0,95,0.02,,,0.96,,2013-02-15 10:11:00,
2013-02-15 05:21:00,67.0,65.0,29.96,NNW,345,3.0,4.0,94,0.03,,,0.96,,2013-02-15 10:21:00,
2013-02-15 05:31:00,67.0,66.0,29.96,North,3,1.0,1.0,95,0.03,,,0.96,,2013-02-15 10:31:00,
2013-02-15 05:42:00,67.0,66.0,29.96,North,3,1.0,1.0,95,0.03,,,0.96,,2013-02-15 10:42:00,
2013-02-15 05:52:00,66.0,65.0,29.97,North,350,0.0,0.0,95,0.03,,,0.96,,2013-02-15 10:52:00,
2013-02-15 06:01:00,67.0,66.0,29.98,North,0,3.0,4.0,95,0.03,,,0.96,,2013-02-15 11:01:00,
2013-02-15 06:11:00,67.0,66.0,29.98,North,0,3.0,4.0,95,0.03,,,0.96,,2013-02-15 11:11:00,
2013-02-15 06:23:00,66.0,65.0,29.97,NNE,23,4.0,6.0,95,0.09,,,0.96,,2013-02-15 11:23:00,
2013-02-15 06:32:00,66.0,65.0,29.97,NE,35,1.0,0.0,95,0.09,,,0.96,,2013-02-15 11:32:00,
2013-02-15 06:42:00,66.0,65.0,29.97,NE,35,1.0,0.0,95,0.09,,,0.96,,2013-02-15 11:42:00,
2013-02-15 06:52:00,66.0,65.0,29.97,NE,51,0.0,0.0,95,0.09,,,0.96,,2013-02-15 11:52:00,
2013-02-15 07:02:00,66.0,65.0,29.98,NNE,14,2.0,3.0,95,0.09,,,0.96,,2013-02-15 12:02:00,
2013-02-15 07:11:00,66.0,65.0,29.98,NNE,14,2.0,3.0,95,0.09,,,0.96,,2013-02-15 12:11:00,
2013-02-15 07:21:00,66.0,64.0,29.98,NNE,23,4.0,4.0,94,0.00,,,0.96,,2013-02-15 12:21:00,
2013-02-15 07:32:00,67.0,65.0,29.99,NE,34,5.0,7.0,94,0.00,,,0.96,,2013-02-15 12:32:00,
2013-02-15 07:42:00,67.0,65.0,29.99,NE,34,5.0,7.0,94,0.00,,,0.96,,2013-02-15 12:42:00,
2013-02-15 07:52:00,67.0,65.0,30.00,NNE,21,4.0,4.0,92,0.00,,,0.96,,2013-02-15 12:52:00,
2013-02-15 08:02:00,67.0,65.0,29.99,ENE,59,3.0,3.0,93,0.00,,,0.96,,2013-02-15 13:02:00,
2013-02-15 08:11:00,67.0,65.0,29.99,ENE,59,3.0,3.0,93,0.00,,,0.96,,2013-02-15 13:11:00,
2013-02-15 08:22:00,67.0,65.0,30.00,NNE,32,3.0,3.0,94,0.01,,,0.96,,2013-02-15 13:22:00,
2013-02-15 08:32:00,67.0,65.0,29.99,NE,56,3.0,3.0,94,0.01,,,0.96,,2013-02-15 13:32:00,
2013-02-15 08:42:00,67.0,65.0,29.99,NE,56,3.0,3.0,94,0.01,,,0.96,,2013-02-15 13:42:00,
2013-02-15 08:52:00,67.0,65.0,30.00,NE,44,1.0,2.0,93,0.01,,,0.96,,2013-02-15 13:52:00,
2013-02-15 09:01:00,67.0,65.0,30.00,NNE,24,3.0,4.0,94,0.01,,,0.96,,2013-02-15 14:01:00,
2013-02-15 09:12:00,67.0,65.0,30.00,NNE,24,3.0,4.0,94,0.01,,,0.96,,2013-02-15 14:12:00,
2013-02-15 09:21:00,68.0,66.0,30.00,ENE,76,0.0,0.0,93,0.01,,,0.96,,2013-02-15 14:21:00,
2013-02-15 09:32:00,68.0,66.0,29.99,ENE,66,2.0,0.0,92,0.01,,,0.96,,2013-02-15 14:32:00,
2013-02-15 09:42:00,68.0,66.0,29.99,ENE,66,2.0,0.0,92,0.01,,,0.96,,2013-02-15 14:42:00,
2013-02-15 09:52:00,68.0,65.0,29.99,NE,52,1.0,3.0,91,0.01,,,0.96,,2013-02-15 14:52:00,
2013-02-15 10:01:00,69.0,66.0,30.00,ENE,66,2.0,2.0,89,0.01,,,0.96,,2013-02-15 15:01:00,
2013-02-15 10:11:00,69.0,66.0,30.00,ENE,66,2.0,2.0,89,0.01,,,0.96,,2013-02-15 15:11:00,
2013-02-15 10:21:00,70.0,65.0,30.01,NE,39,5.0,5.0,85,0.01,,,0.96,,2013-02-15 15:21:00,
2013-02-15 10:32:00,71.0,66.0,30.01,NE,38,3.0,3.0,85,0.01,,,0.96,,2013-02-15 15:32:00,
2013-02-15 10:42:00,71.0,65.0,30.01,North,11,6.0,8.0,82,0.01,,,0.96,,2013-02-15 15:42:00,
2013-02-15 10:52:00,71.0,65.0,30.01,North,11,6.0,8.0,82,0.01,,,0.96,,2013-02-15 15:52:00,
2013-02-15 11:02:00,72.0,66.0,30.01,NNE,31,4.0,4.0,82,0.01,,,0.96,,2013-02-15 16:02:00,
2013-02-15 11:11:00,72.0,66.0,30.01,NNE,31,4.0,4.0,82,0.01,,,0.96,,2013-02-15 16:11:00,
2013-02-15 11:22:00,72.0,66.0,30.01,North,359,5.0,6.0,82,0.00,,,0.96,,2013-02-15 16:22:00,
2013-02-15 11:32:00,71.0,65.0,30.01,NNW,342,5.0,5.0,82,0.00,,,0.96,,2013-02-15 16:32:00,
2013-02-15 11:42:00,71.0,65.0,30.01,NNW,342,5.0,5.0,82,0.00,,,0.96,,2013-02-15 16:42:00,
2013-02-15 11:52:00,71.0,65.0,30.01,NNE,18,3.0,5.0,82,0.00,,,0.96,,2013-02-15 16:52:00,
2013-02-15 12:01:00,71.0,65.0,30.01,NNE,18,5.0,5.0,80,0.00,,,0.96,,2013-02-15 17:01:00,
2013-02-15 12:11:00,72.0,65.0,30.01,NNW,345,4.0,4.0,79,0.00,,,0.96,,2013-02-15 17:11:00,
2013-02-15 12:21:00,72.0,65.0,30.01,NNW,345,4.0,4.0,79,0.00,,,0.96,,2013-02-15 17:21:00,
2013-02-15 12:32:00,71.0,65.0,30.01,NNW,328,4.0,4.0,80,0.00,,,0.96,,2013-02-15 17:32:00,
2013-02-15 12:42:00,71.0,65.0,30.01,NNW,328,4.0,4.0,80,0.00,,,0.96,,2013-02-15 17:42:00,
2013-02-15 12:52:00,71.0,64.0,29.99,North,359,6.0,6.0,79,0.00,,,0.96,,2013-02-15 17:52:00,
2013-02-15 13:01:00,71.0,65.0,29.99,North,353,3.0,6.0,81,0.00,,,0.96,,2013-02-15 18:01:00,
2013-02-15 13:11:00,71.0,65.0,29.99,North,353,3.0,6.0,81,0.00,,,0.96,,2013-02-15 18:11:00,
2013-02-15 13:21:00,69.0,63.0,29.98,NW,304,8.0,8.0,81,0.00,,,0.96,,2013-02-15 18:21:00,
2013-02-15 13:32:00,69.0,64.0,29.98,NNW,329,6.0,6.0,83,0.00,,,0.96,,2013-02-15 18:32:00,
2013-02-15 13:42:00,69.0,64.0,29.98,NNW,329,6.0,6.0,83,0.00,,,0.96,,2013-02-15 18:42:00,
2013-02-15 13:53:00,68.0,64.0,29.97,NNW,342,6.0,6.0,88,0.00,,,0.96,,2013-02-15 18:53:00,
2013-02-15 14:01:00,68.0,65.0,29.96,NNW,342,3.0,3.0,90,0.00,,,0.96,,2013-02-15 19:01:00,
2013-02-15 14:11:00,68.0,65.0,29.96,NNW,342,3.0,3.0,90,0.00,,,0.96,,2013-02-15 19:11:00,
2013-02-15 14:22:00,69.0,66.0,29.96,WNW,297,3.0,4.0,90,0.00,,,0.96,,2013-02-15 19:22:00,
2013-02-15 14:32:00,68.0,65.0,29.96,North,1,3.0,4.0,90,0.00,,,0.96,,2013-02-15 19:32:00,
2013-02-15 14:42:00,68.0,65.0,29.96,North,1,3.0,4.0,90,0.00,,,0.96,,2013-02-15 19:42:00,
2013-02-15 14:52:00,68.0,65.0,29.95,NNW,329,3.0,3.0,91,0.00,,,0.96,,2013-02-15 19:52:00,
2013-02-15 15:01:00,68.0,66.0,29.95,West,277,1.0,5.0,92,0.00,,,0.96,,2013-02-15 20:01:00,
2013-02-15 15:11:00,68.0,66.0,29.95,West,277,1.0,5.0,92,0.00,,,0.96,,2013-02-15 20:11:00,
2013-02-15 15:21:00,68.0,66.0,29.95,NW,308,2.0,3.0,93,0.04,,,0.96,,2013-02-15 20:21:00,
2013-02-15 15:32:00,67.0,64.0,29.96,North,1,4.0,4.0,91,0.04,,,0.96,,2013-02-15 20:32:00,
2013-02-15 15:42:00,67.0,64.0,29.96,North,1,4.0,4.0,91,0.04,,,0.96,,2013-02-15 20:42:00,
2013-02-15 15:52:00,67.0,65.0,29.95,NNW,335,1.0,1.0,92,0.04,,,0.96,,2013-02-15 20:52:00,
2013-02-15 16:02:00,67.0,65.0,29.95,NNW,342,1.0,0.0,92,0.04,,,0.96,,2013-02-15 21:02:00,
2013-02-15 16:11:00,67.0,65.0,29.95,NNW,342,1.0,0.0,92,0.04,,,0.96,,2013-02-15 21:11:00,
2013-02-15 16:21:00,67.0,65.0,29.95,WNW,301,1.0,0.0,92,0.05,,,0.96,,2013-02-15 21:21:00,
2013-02-15 16:32:00,67.0,65.0,29.95,WSW,243,0.0,0.0,93,0.05,,,0.96,,2013-02-15 21:32:00,
2013-02-15 16:42:00,67.0,65.0,29.95,WSW,243,0.0,0.0,93,0.05,,,0.96,,2013-02-15 21:42:00,
2013-02-15 16:52:00,67.0,65.0,29.95,West,281,1.0,0.0,93,0.05,,,0.96,,2013-02-15 21:52:00,
2013-02-15 17:02:00,67.0,65.0,29.95,NW,311,0.0,0.0,93,0.05,,,0.96,,2013-02-15 22:02:00,
2013-02-15 17:11:00,67.0,65.0,29.95,NW,311,0.0,0.0,93,0.05,,,0.96,,2013-02-15 22:11:00,
2013-02-15 17:22:00,66.0,64.0,29.95,NW,308,1.0,1.0,93,0.05,,,0.96,,2013-02-15 22:22:00,
2013-02-15 17:32:00,66.0,64.0,29.96,North,357,1.0,0.0,94,0.05,,,0.96,,2013-02-15 22:32:00,
2013-02-15 17:42:00,66.0,64.0,29.96,North,357,1.0,0.0,94,0.05,,,0.96,,2013-02-15 22:42:00,
2013-02-15 17:52:00,66.0,64.0,29.95,NW,315,2.0,2.0,93,0.05,,,0.96,,2013-02-15 22:52:00,
2013-02-15 18:02:00,66.0,64.0,29.96,NW,312,0.0,0.0,93,0.05,,,0.96,,2013-02-15 23:02:00,
2013-02-15 18:11:00,66.0,64.0,29.96,NW,312,0.0,0.0,93,0.05,,,0.96,,2013-02-15 23:11:00,
2013-02-15 18:21:00,65.0,63.0,29.96,NW,312,0.0,0.0,93,0.03,,,0.96,,2013-02-15 23:21:00,
2013-02-15 18:32:00,65.0,63.0,29.95,North,359,0.0,4.0,94,0.03,,,0.96,,2013-02-15 23:32:00,
2013-02-15 18:42:00,65.0,63.0,29.95,North,359,0.0,4.0,94,0.03,,,0.96,,2013-02-15 23:42:00,
2013-02-15 18:52:00,66.0,64.0,29.95,North,353,3.0,3.0,94,0.03,,,0.96,,2013-02-15 23:52:00,
2013-02-15 19:02:00,66.0,64.0,29.94,NNW,347,0.0,0.0,94,0.03,,,0.96,,2013-02-16 00:02:00,
2013-02-15 19:11:00,66.0,64.0,29.94,NNW,347,0.0,0.0,94,0.03,,,0.96,,2013-02-16 00:11:00,
2013-02-15 19:21:00,66.0,64.0,29.94,NNE,25,0.0,2.0,94,0.00,,,0.96,,2013-02-16 00:21:00,
2013-02-15 19:32:00,65.0,63.0,29.94,NE,44,3.0,3.0,94,0.00,,,0.96,,2013-02-16 00:32:00,
2013-02-15 19:42:00,65.0,63.0,29.94,NE,44,3.0,3.0,94,0.00,,,0.96,,2013-02-16 00:42:00,
2013-02-15 19:52:00,65.0,63.0,29.94,North,8,3.0,3.0,94,0.00,,,0.96,,2013-02-16 00:52:00,
2013-02-15 20:02:00,65.0,63.0,29.94,NE,37,0.0,0.0,94,0.00,,,0.96,,2013-02-16 01:02:00,
2013-02-15 20:11:00,65.0,63.0,29.94,NE,37,0.0,0.0,94,0.00,,,0.96,,2013-02-16 01:11:00,
2013-02-15 20:21:00,65.0,63.0,29.94,North,11,0.0,0.0,94,0.01,,,0.96,,2013-02-16 01:21:00,
2013-02-15 20:32:00,65.0,63.0,29.95,SSW,195,0.0,0.0,94,0.01,,,0.96,,2013-02-16 01:32:00,
2013-02-15 20:42:00,65.0,63.0,29.95,SSW,195,0.0,0.0,94,0.01,,,0.96,,2013-02-16 01:42:00,
2013-02-15 20:52:00,65.0,63.0,29.96,SSW,195,0.0,0.0,94,0.01,,,0.96,,2013-02-16 01:52:00,
2013-02-15 21:01:00,65.0,64.0,29.96,SSW,195,0.0,0.0,95,0.01,,,0.96,,2013-02-16 02:01:00,
2013-02-15 21:11:00,65.0,64.0,29.96,SSW,195,0.0,0.0,95,0.01,,,0.96,,2013-02-16 02:11:00,
2013-02-15 21:21:00,65.0,64.0,29.96,SSW,195,0.0,0.0,95,0.01,,,0.96,,2013-02-16 02:21:00,
2013-02-15 21:32:00,65.0,64.0,29.96,North,350,0.0,0.0,95,0.01,,,0.96,,2013-02-16 02:32:00,
2013-02-15 21:42:00,65.0,64.0,29.96,North,350,0.0,0.0,95,0.01,,,0.96,,2013-02-16 02:42:00,
2013-02-15 21:52:00,65.0,63.0,29.96,NNW,333,0.0,2.0,94,0.01,,,0.96,,2013-02-16 02:52:00,
2013-02-15 22:02:00,65.0,64.0,29.96,NW,319,0.0,0.0,95,0.01,,,0.96,,2013-02-16 03:02:00,
2013-02-15 22:11:00,65.0,64.0,29.96,NW,319,0.0,0.0,95,0.01,,,0.96,,2013-02-16 03:11:00,
2013-02-15 22:21:00,65.0,64.0,29.96,North,357,1.0,2.0,95,0.00,,,0.96,,2013-02-16 03:21:00,
2013-02-15 22:32:00,65.0,64.0,29.95,WNW,288,0.0,0.0,95,0.00,,,0.96,,2013-02-16 03:32:00,
2013-02-15 22:42:00,65.0,64.0,29.95,WNW,288,0.0,0.0,95,0.00,,,0.96,,2013-02-16 03:42:00,
2013-02-15 22:52:00,65.0,64.0,29.96,North,349,0.0,1.0,95,0.00,,,0.96,,2013-02-16 03:52:00,
2013-02-15 23:01:00,65.0,64.0,29.95,NNW,346,0.0,0.0,95,0.00,,,0.96,,2013-02-16 04:01:00,
2013-02-15 23:11:00,65.0,64.0,29.95,NNW,335,0.0,0.0,95,0.00,,,0.96,,2013-02-16 04:11:00,
2013-02-15 23:21:00,65.0,64.0,29.95,NNW,335,0.0,0.0,95,0.00,,,0.96,,2013-02-16 04:21:00,
2013-02-15 23:32:00,65.0,64.0,29.94,NW,321,1.0,0.0,95,0.00,,,0.96,,2013-02-16 04:32:00,
2013-02-15 23:42:00,65.0,64.0,29.94,NW,321,1.0,0.0,95,0.00,,,0.96,,2013-02-16 04:42:00,
2013-02-15 23:52:00,65.0,64.0,29.94,WNW,290,0.0,0.0,95,0.00,,,0.96,,2013-02-16 04:52:00,